createdAt,value
2023-01-28T00:00:34.454Z,83.53
2023-01-28T00:03:01.169Z,83.60
2023-01-28T00:05:30.688Z,83.62
2023-01-28T00:07:57.267Z,83.58
2023-01-28T00:10:24.299Z,83.65
2023-01-28T00:12:52.279Z,83.57
2023-01-28T00:15:18.912Z,83.57
2023-01-28T00:17:45.604Z,83.60
2023-01-28T00:20:12.940Z,83.65
2023-01-28T00:22:40.201Z,83.69
2023-01-28T00:25:07.240Z,83.71
2023-01-28T00:27:34.233Z,83.70
2023-01-28T00:30:00.857Z,83.70
2023-01-28T00:32:28.145Z,83.66
2023-01-28T00:34:55.101Z,83.80
2023-01-28T00:37:22.609Z,83.80
2023-01-28T00:39:49.357Z,83.80
2023-01-28T00:42:16.143Z,83.79
2023-01-28T00:44:43.239Z,83.91
2023-01-28T00:47:10.575Z,83.73
2023-01-28T00:49:37.180Z,83.76
2023-01-28T00:59:45.802Z,83.96
2023-01-28T01:02:13.931Z,83.92
2023-01-28T01:04:55.082Z,83.89
2023-01-28T01:07:32.280Z,83.90
2023-01-28T01:10:03.981Z,83.92
2023-01-28T01:12:32.643Z,83.82
2023-01-28T01:15:02.634Z,83.92
2023-01-28T01:17:32.375Z,83.85
2023-01-28T01:20:00.329Z,83.94
2023-01-28T01:22:28.359Z,83.92
2023-01-28T01:24:56.396Z,83.97
2023-01-28T01:27:24.448Z,84.00
2023-01-28T01:29:53.088Z,83.91
2023-01-28T01:32:22.512Z,83.96
2023-01-28T01:34:50.576Z,83.99
2023-01-28T01:37:18.540Z,83.97
2023-01-28T01:39:46.641Z,84.00
2023-01-28T01:42:14.786Z,83.88
2023-01-28T01:44:59.412Z,83.89
2023-01-28T01:47:28.506Z,84.05
2023-01-28T01:49:56.873Z,83.95
2023-01-28T01:52:27.713Z,84.03
2023-01-28T01:54:57.366Z,84.04
2023-01-28T01:57:29.397Z,83.90
2023-01-28T02:00:05.277Z,83.93
2023-01-28T02:02:44.010Z,84.04
2023-01-28T02:05:13.886Z,84.08
2023-01-28T02:07:42.160Z,83.98
2023-01-28T02:10:10.615Z,84.04
2023-01-28T02:12:41.138Z,84.03
2023-01-28T02:15:11.773Z,84.01
2023-01-28T02:17:39.984Z,84.07
2023-01-28T02:20:12.598Z,84.04
2023-01-28T02:23:15.551Z,84.01
2023-01-28T02:26:02.153Z,84.09
2023-01-28T02:28:39.689Z,84.01
2023-01-28T02:31:16.326Z,84.13
2023-01-28T02:34:15.195Z,84.12
2023-01-28T02:36:48.873Z,84.16
2023-01-28T02:39:20.573Z,84.10
2023-01-28T02:41:52.448Z,84.24
2023-01-28T02:44:20.522Z,84.10
2023-01-28T02:47:07.573Z,84.15
2023-01-28T02:49:47.257Z,84.10
2023-01-28T02:52:56.095Z,84.22
2023-01-28T02:55:34.332Z,84.10
2023-01-28T02:58:14.469Z,83.96
2023-01-28T03:00:45.549Z,84.05
2023-01-28T03:03:55.473Z,84.07
2023-01-28T03:06:46.680Z,84.01
2023-01-28T03:09:25.255Z,83.91
2023-01-28T03:12:36.433Z,83.95
2023-01-28T03:15:30.107Z,83.85
2023-01-28T03:18:17.977Z,83.89
2023-01-28T03:21:21.616Z,83.85
2023-01-28T03:24:19.156Z,83.90
2023-01-28T03:27:13.302Z,83.85
2023-01-28T03:30:00.670Z,83.70
2023-01-28T03:32:47.832Z,83.80
2023-01-28T03:35:35.392Z,83.74
2023-01-28T03:38:18.555Z,83.77
2023-01-28T03:40:57.719Z,83.65
2023-01-28T03:43:26.176Z,83.76
2023-01-28T03:45:55.556Z,83.74
2023-01-28T03:48:25.485Z,83.77
2023-01-28T03:50:55.214Z,83.70
2023-01-28T03:53:24.148Z,83.71
2023-01-28T03:55:53.932Z,83.73
2023-01-28T03:58:23.444Z,83.68
2023-01-28T04:00:52.221Z,83.69
2023-01-28T04:03:20.769Z,83.59
2023-01-28T04:06:07.766Z,83.66
2023-01-28T04:09:02.273Z,83.51
2023-01-28T04:11:33.514Z,83.69
2023-01-28T04:14:04.299Z,83.63
2023-01-28T04:16:55.113Z,83.53
2023-01-28T04:19:24.742Z,83.53
2023-01-28T04:21:56.923Z,83.60
2023-01-28T04:24:26.750Z,83.47
2023-01-28T04:26:56.459Z,83.52
2023-01-28T04:29:26.648Z,83.63
2023-01-28T04:31:58.096Z,83.57
2023-01-28T04:34:56.527Z,83.48
2023-01-28T04:37:48.467Z,83.42
2023-01-28T04:40:37.520Z,83.54
2023-01-28T04:43:12.776Z,83.52
2023-01-28T04:45:52.511Z,83.35
2023-01-28T04:48:36.660Z,83.33
2023-01-28T04:51:23.809Z,83.39
2023-01-28T04:54:07.939Z,83.51
2023-01-28T04:56:37.542Z,83.34
2023-01-28T04:59:05.565Z,83.33
2023-01-28T05:01:34.705Z,83.37
2023-01-28T05:04:06.255Z,83.35
2023-01-28T05:06:37.690Z,83.22
2023-01-28T05:09:13.264Z,83.19
2023-01-28T05:11:42.485Z,83.21
2023-01-28T05:14:10.540Z,83.23
2023-01-28T05:16:46.251Z,83.12
2023-01-28T05:19:14.302Z,83.07
2023-01-28T05:21:44.510Z,83.02
2023-01-28T05:24:36.983Z,82.95
2023-01-28T05:27:05.075Z,82.99
2023-01-28T05:29:34.243Z,82.91
2023-01-28T05:32:02.409Z,82.96
2023-01-28T05:34:32.211Z,82.96
2023-01-28T05:37:04.701Z,83.08
2023-01-28T05:39:37.047Z,82.92
2023-01-28T05:42:05.414Z,83.01
2023-01-28T05:44:36.452Z,82.96
2023-01-28T05:47:17.916Z,83.00
2023-01-28T05:49:51.927Z,82.88
2023-01-28T05:52:33.853Z,82.93
2023-01-28T05:55:02.368Z,82.94
2023-01-28T05:57:30.615Z,82.99
2023-01-28T06:00:00.361Z,82.92
2023-01-28T08:09:36.796Z,82.64
2023-01-28T08:12:04.505Z,82.52
2023-01-28T08:14:31.341Z,82.54
2023-01-28T08:16:58.037Z,82.45
2023-01-28T08:19:24.755Z,82.54
2023-01-28T08:21:51.424Z,82.34
2023-01-28T08:24:18.381Z,82.54
2023-01-28T08:26:47.667Z,82.38
2023-01-28T08:29:14.233Z,82.28
2023-01-28T08:31:41.065Z,82.12
2023-01-28T08:34:07.890Z,82.02
2023-01-28T08:36:34.868Z,81.88
2023-01-28T08:39:05.409Z,81.80
2023-01-28T08:41:32.247Z,81.81
2023-01-28T08:43:59.816Z,81.73
2023-01-28T08:46:27.048Z,81.47
2023-01-28T08:48:53.792Z,81.64
2023-01-28T08:51:21.302Z,81.39
2023-01-28T08:53:48.337Z,81.55
2023-01-28T08:56:15.958Z,81.39
2023-01-28T08:58:42.604Z,81.06
2023-01-28T09:01:09.242Z,81.11
2023-01-28T09:03:36.055Z,80.74
2023-01-28T09:06:03.512Z,80.73
2023-01-28T09:08:32.293Z,80.91
2023-01-28T09:10:59.238Z,80.43
2023-01-28T09:13:26.610Z,80.52
2023-01-28T09:15:53.875Z,80.38
2023-01-28T09:18:20.629Z,80.33
2023-01-28T09:20:47.517Z,80.20
2023-01-28T09:23:14.297Z,80.14
2023-01-28T09:25:41.803Z,80.25
2023-01-28T09:28:08.598Z,80.08
2023-01-28T09:30:37.791Z,80.12
2023-01-28T09:33:04.981Z,80.29
2023-01-28T09:35:32.797Z,80.05
2023-01-28T09:37:59.757Z,80.05
2023-01-28T09:40:32.690Z,80.40
2023-01-28T09:43:25.145Z,80.24
2023-01-28T09:45:52.563Z,80.22
2023-01-28T09:48:37.580Z,80.09
2023-01-28T09:51:07.926Z,79.95
2023-01-28T09:53:39.041Z,80.12
2023-01-28T09:56:13.995Z,79.90
2023-01-28T09:58:43.681Z,79.94
2023-01-28T10:01:31.914Z,80.00
2023-01-28T10:04:22.455Z,80.04
2023-01-28T10:07:27.285Z,80.00
2023-01-28T10:10:12.860Z,80.19
2023-01-28T10:13:03.278Z,79.92
2023-01-28T10:15:57.586Z,79.95
2023-01-28T10:18:36.212Z,79.75
2023-01-28T10:21:10.596Z,80.10
2023-01-28T10:23:46.983Z,79.88
2023-01-28T10:26:25.302Z,79.93
2023-01-28T10:28:54.957Z,79.86
2023-01-28T10:31:30.035Z,79.85
2023-01-28T10:33:56.749Z,79.97
2023-01-28T10:36:23.355Z,79.90
2023-01-28T10:38:50.729Z,80.10
2023-01-28T10:41:20.546Z,79.94
2023-01-28T10:43:47.224Z,79.84
2023-01-28T10:46:16.912Z,80.17
2023-01-28T10:49:16.552Z,80.21
2023-01-28T10:51:43.952Z,79.84
2023-01-28T10:54:18.092Z,80.03
2023-01-28T10:56:44.769Z,79.94
2023-01-28T10:59:17.286Z,79.96
2023-01-28T11:01:45.772Z,80.01
2023-01-28T11:04:33.999Z,80.05
2023-01-28T11:07:05.311Z,80.03
2023-01-28T11:09:34.834Z,80.10
2023-01-28T11:12:25.438Z,79.96
2023-01-28T11:14:54.660Z,79.99
2023-01-28T11:17:24.117Z,80.22
2023-01-28T11:19:53.192Z,79.97
2023-01-28T11:22:27.222Z,80.23
2023-01-28T11:24:54.124Z,79.94
2023-01-28T11:27:24.604Z,80.13
2023-01-28T11:29:51.528Z,80.09
2023-01-28T11:32:19.206Z,80.07
2023-01-28T11:34:53.848Z,80.21
2023-01-28T11:37:22.447Z,80.38
2023-01-28T11:39:49.101Z,80.37
2023-01-28T11:42:18.032Z,80.21
2023-01-28T11:44:48.180Z,80.22
2023-01-28T11:47:20.916Z,80.15
2023-01-28T11:49:50.366Z,80.34
2023-01-28T11:52:48.664Z,80.31
2023-01-28T11:55:40.157Z,80.50
2023-01-28T11:58:30.227Z,80.53
2023-01-28T12:01:13.730Z,80.24
2023-01-28T12:04:03.412Z,79.95
2023-01-28T14:54:57.440Z,82.80
2023-01-28T14:57:33.431Z,82.92
2023-01-28T15:00:07.597Z,83.01
2023-01-28T15:02:34.287Z,83.08
2023-01-28T15:05:08.931Z,83.17
2023-01-28T15:07:35.690Z,83.34
2023-01-28T15:10:04.137Z,83.47
2023-01-28T15:12:39.128Z,83.41
2023-01-28T15:15:39.216Z,83.60
2023-01-28T15:18:13.863Z,83.54
2023-01-28T15:20:46.100Z,83.67
2023-01-28T15:23:18.816Z,83.83
2023-01-28T15:25:46.223Z,83.72
2023-01-28T15:28:36.530Z,83.82
2023-01-28T15:31:03.371Z,83.82
2023-01-28T15:33:31.238Z,83.93
2023-01-28T15:35:58.276Z,83.88
2023-01-28T15:38:26.847Z,83.97
2023-01-28T15:40:58.739Z,83.92
2023-01-28T15:43:28.227Z,83.91
2023-01-28T15:45:56.372Z,83.88
2023-01-28T15:48:25.308Z,83.92
2023-01-28T15:51:02.205Z,83.95
2023-01-28T15:53:50.391Z,83.95
2023-01-28T15:56:24.159Z,83.89
2023-01-28T15:58:50.989Z,83.79
2023-01-28T16:01:21.920Z,84.01
2023-01-28T16:04:02.360Z,84.15
2023-01-28T16:06:37.217Z,83.98
2023-01-28T16:09:27.902Z,83.93
2023-01-28T16:12:07.227Z,83.87
2023-01-28T16:14:40.611Z,83.96
2023-01-28T16:17:08.791Z,83.81
2023-01-28T16:19:40.655Z,83.73
2023-01-28T16:22:08.241Z,83.65
2023-01-28T16:24:37.793Z,83.63
2023-01-28T16:27:08.954Z,83.59
2023-01-28T16:29:37.067Z,83.66
2023-01-28T16:32:04.012Z,83.62
2023-01-28T16:34:31.230Z,83.51
2023-01-28T16:36:59.017Z,83.29
2023-01-28T16:39:25.986Z,83.36
2023-01-28T16:41:53.361Z,83.38
2023-01-28T16:44:20.096Z,83.27
2023-01-28T16:46:46.739Z,83.29
2023-01-28T16:49:15.578Z,83.24
2023-01-28T16:51:43.383Z,83.24
2023-01-28T16:54:14.637Z,83.11
2023-01-28T16:56:45.966Z,83.11
2023-01-28T16:59:15.095Z,82.92
2023-01-28T17:01:43.209Z,82.90
2023-01-28T17:04:12.378Z,82.83
2023-01-28T17:06:43.828Z,82.70
2023-01-28T17:09:12.061Z,82.63
2023-01-28T17:11:41.521Z,82.55
2023-01-28T17:14:09.569Z,82.51
2023-01-28T17:16:37.141Z,82.36
2023-01-28T17:19:04.058Z,82.18
2023-01-28T17:21:30.954Z,82.26
2023-01-28T17:23:59.461Z,82.13
2023-01-28T17:26:28.472Z,82.19
2023-01-28T17:28:55.786Z,82.06
2023-01-28T17:31:22.721Z,82.00
2023-01-28T17:33:55.898Z,81.85
2023-01-28T17:36:23.498Z,81.92
2023-01-28T17:38:50.711Z,81.77
2023-01-28T17:41:17.869Z,81.72
2023-01-28T17:43:54.307Z,81.72
2023-01-28T17:46:22.052Z,81.66
2023-01-28T17:48:48.802Z,81.77
2023-01-28T17:51:18.435Z,81.58
2023-01-28T17:53:46.710Z,81.56
2023-01-28T17:56:18.081Z,81.67
2023-01-28T17:58:49.248Z,81.50
2023-01-28T18:01:15.869Z,81.45
2023-01-28T18:03:42.516Z,81.40
2023-01-28T18:06:09.442Z,81.32
2023-01-28T18:08:36.170Z,81.22
2023-01-28T20:18:15.900Z,81.17
2023-01-28T20:20:51.989Z,81.02
2023-01-28T20:23:19.091Z,81.10
2023-01-28T20:25:51.120Z,81.03
2023-01-28T20:28:18.410Z,81.00
2023-01-28T20:30:45.312Z,81.03
2023-01-28T20:33:12.352Z,81.07
2023-01-28T20:35:38.904Z,80.95
2023-01-28T20:38:05.765Z,80.84
2023-01-28T20:40:32.740Z,80.91
2023-01-28T20:42:59.423Z,81.02
2023-01-28T20:45:26.433Z,80.67
2023-01-28T20:47:53.684Z,80.95
2023-01-28T20:50:20.715Z,80.83
2023-01-28T20:52:47.780Z,80.72
2023-01-28T20:55:15.174Z,80.81
2023-01-28T20:57:44.397Z,80.66
2023-01-28T21:00:12.001Z,80.57
2023-01-28T21:02:39.954Z,80.45
2023-01-28T21:05:07.175Z,80.35
2023-01-28T21:07:34.521Z,80.39
2023-01-28T21:10:02.542Z,80.29
2023-01-28T21:12:30.993Z,80.15
2023-01-28T21:14:57.958Z,80.12
2023-01-28T21:17:25.815Z,79.92
2023-01-28T21:19:53.712Z,80.03
2023-01-28T21:22:20.468Z,79.82
2023-01-28T21:24:48.647Z,79.83
2023-01-28T21:27:15.540Z,79.79
2023-01-28T21:29:42.459Z,79.60
2023-01-28T21:32:10.638Z,79.70
2023-01-28T21:34:37.539Z,79.54
2023-01-28T21:37:04.298Z,79.53
2023-01-28T21:39:30.884Z,79.47
2023-01-28T21:41:57.662Z,79.38
2023-01-28T21:44:24.706Z,79.28
2023-01-28T21:46:51.533Z,79.34
2023-01-28T21:49:18.199Z,79.29
2023-01-28T21:51:48.122Z,79.03
2023-01-28T21:54:18.587Z,79.21
2023-01-28T21:56:48.634Z,79.08
2023-01-28T21:59:28.423Z,79.06
2023-01-28T22:01:56.260Z,79.10
2023-01-28T22:04:26.200Z,79.05
2023-01-28T22:06:53.742Z,78.87
2023-01-28T22:09:20.476Z,78.87
2023-01-28T22:11:47.192Z,78.81
2023-01-28T22:14:14.018Z,78.87
2023-01-28T22:16:41.498Z,78.61
2023-01-28T22:19:08.652Z,78.82
2023-01-28T22:21:40.217Z,78.84
2023-01-28T22:24:08.871Z,78.79
2023-01-28T22:26:36.072Z,78.78
2023-01-28T22:29:03.548Z,78.76
2023-01-28T22:31:30.361Z,78.76
2023-01-28T22:33:57.101Z,78.73
2023-01-28T22:36:24.105Z,78.67
2023-01-28T22:38:50.914Z,78.80
2023-01-28T22:41:18.599Z,78.66
2023-01-28T22:43:45.951Z,78.68
2023-01-28T22:46:12.905Z,78.71
2023-01-28T22:48:39.775Z,78.77
2023-01-28T22:51:09.774Z,78.74
2023-01-28T22:53:36.875Z,78.63
2023-01-28T22:56:03.725Z,78.70
2023-01-28T22:58:34.436Z,78.57
2023-01-28T23:01:01.389Z,78.75
2023-01-28T23:03:28.408Z,78.58
2023-01-28T23:06:02.621Z,78.43
2023-01-28T23:08:30.619Z,78.38
2023-01-28T23:11:00.147Z,78.42
2023-01-28T23:13:47.679Z,78.57
2023-01-28T23:16:33.136Z,78.41
2023-01-28T23:19:18.943Z,78.41
2023-01-28T23:22:04.090Z,78.47
2023-01-28T23:24:32.240Z,78.41
2023-01-28T23:27:00.215Z,78.28
2023-01-28T23:29:27.406Z,78.43
2023-01-28T23:32:00.464Z,78.38
2023-01-28T23:34:30.126Z,78.47
2023-01-28T23:36:57.916Z,78.33
2023-01-28T23:39:24.553Z,78.34
2023-01-28T23:41:51.161Z,78.29
2023-01-28T23:44:25.297Z,78.20
2023-01-28T23:46:52.249Z,78.12
2023-01-28T23:49:19.015Z,78.12
2023-01-28T23:51:45.677Z,78.22
2023-01-28T23:54:12.278Z,78.03
2023-01-28T23:56:39.665Z,78.11
2023-01-28T23:59:06.339Z,77.99
